sensor_id;sensor_type;location;lat;lon;timestamp;temperature;humidity
23991;DHT22;12205;50.600;4.608;2023-07-13T00:00:50;16.80;99.90
23991;DHT22;12205;50.600;4.608;2023-07-13T00:03:17;16.80;99.90
23991;DHT22;12205;50.600;4.608;2023-07-13T00:05:44;16.80;99.90
23991;DHT22;12205;50.600;4.608;2023-07-13T00:08:11;16.80;99.90
23991;DHT22;12205;50.600;4.608;2023-07-13T00:10:42;16.70;99.90
23991;DHT22;12205;50.600;4.608;2023-07-13T00:13:12;16.70;99.90
23991;DHT22;12205;50.600;4.608;2023-07-13T00:15:39;16.70;99.90
23991;DHT22;12205;50.600;4.608;2023-07-13T00:18:06;16.60;99.90
23991;DHT22;12205;50.600;4.608;2023-07-13T00:20:33;16.50;99.90
23991;DHT22;12205;50.600;4.608;2023-07-13T00:23:00;16.50;99.90
23991;DHT22;12205;50.600;4.608;2023-07-13T00:25:27;16.40;99.90
23991;DHT22;12205;50.600;4.608;2023-07-13T00:27:56;16.30;99.90
23991;DHT22;12205;50.600;4.608;2023-07-13T00:30:23;16.20;99.90
23991;DHT22;12205;50.600;4.608;2023-07-13T00:32:51;16.20;99.90
23991;DHT22;12205;50.600;4.608;2023-07-13T00:35:18;16.20;99.90
23991;DHT22;12205;50.600;4.608;2023-07-13T00:37:46;16.20;99.90
23991;DHT22;12205;50.600;4.608;2023-07-13T00:40:14;16.10;99.90
23991;DHT22;12205;50.600;4.608;2023-07-13T00:42:44;16.10;99.90
23991;DHT22;12205;50.600;4.608;2023-07-13T00:48:34;16.10;99.90
23991;DHT22;12205;50.600;4.608;2023-07-13T00:51:04;16.10;99.90
23991;DHT22;12205;50.600;4.608;2023-07-13T00:53:33;16.20;99.90
23991;DHT22;12205;50.600;4.608;2023-07-13T00:56:01;16.20;99.90
23991;DHT22;12205;50.600;4.608;2023-07-13T00:58:29;16.10;99.90
23991;DHT22;12205;50.600;4.608;2023-07-13T01:00:57;16.00;99.90
23991;DHT22;12205;50.600;4.608;2023-07-13T01:03:24;16.00;99.90
23991;DHT22;12205;50.600;4.608;2023-07-13T01:05:55;16.00;99.90
23991;DHT22;12205;50.600;4.608;2023-07-13T01:08:22;15.90;99.90
23991;DHT22;12205;50.600;4.608;2023-07-13T01:10:54;15.90;99.90
23991;DHT22;12205;50.600;4.608;2023-07-13T01:13:22;16.00;99.90
23991;DHT22;12205;50.600;4.608;2023-07-13T01:15:52;16.00;99.90
23991;DHT22;12205;50.600;4.608;2023-07-13T01:18:22;16.00;99.90
23991;DHT22;12205;50.600;4.608;2023-07-13T01:20:56;16.00;99.90
23991;DHT22;12205;50.600;4.608;2023-07-13T01:23:25;16.00;99.90
23991;DHT22;12205;50.600;4.608;2023-07-13T01:25:55;16.10;99.90
23991;DHT22;12205;50.600;4.608;2023-07-13T01:28:24;16.00;99.90
23991;DHT22;12205;50.600;4.608;2023-07-13T01:30:53;16.10;99.90
23991;DHT22;12205;50.600;4.608;2023-07-13T01:33:22;16.10;99.90
23991;DHT22;12205;50.600;4.608;2023-07-13T01:35:50;16.10;99.90
23991;DHT22;12205;50.600;4.608;2023-07-13T01:38:21;16.10;99.90
23991;DHT22;12205;50.600;4.608;2023-07-13T01:40:50;16.10;99.90
23991;DHT22;12205;50.600;4.608;2023-07-13T01:43:18;16.00;99.90
23991;DHT22;12205;50.600;4.608;2023-07-13T01:45:45;16.10;99.90
23991;DHT22;12205;50.600;4.608;2023-07-13T01:48:13;16.00;99.90
23991;DHT22;12205;50.600;4.608;2023-07-13T01:50:41;16.00;99.90
23991;DHT22;12205;50.600;4.608;2023-07-13T01:53:08;16.00;99.90
23991;DHT22;12205;50.600;4.608;2023-07-13T01:55:36;16.00;99.90
23991;DHT22;12205;50.600;4.608;2023-07-13T01:58:04;15.90;99.90
23991;DHT22;12205;50.600;4.608;2023-07-13T02:00:32;15.90;99.90
23991;DHT22;12205;50.600;4.608;2023-07-13T02:03:01;15.80;99.90
23991;DHT22;12205;50.600;4.608;2023-07-13T02:05:29;15.80;99.90
23991;DHT22;12205;50.600;4.608;2023-07-13T02:07:56;15.70;99.90
23991;DHT22;12205;50.600;4.608;2023-07-13T02:10:24;15.70;99.90
23991;DHT22;12205;50.600;4.608;2023-07-13T02:12:53;15.70;99.90
23991;DHT22;12205;50.600;4.608;2023-07-13T02:15:20;15.60;99.90
23991;DHT22;12205;50.600;4.608;2023-07-13T02:17:47;15.60;99.90
23991;DHT22;12205;50.600;4.608;2023-07-13T02:20:14;15.50;99.90
23991;DHT22;12205;50.600;4.608;2023-07-13T02:22:41;15.50;99.90
23991;DHT22;12205;50.600;4.608;2023-07-13T02:25:08;15.50;99.90
23991;DHT22;12205;50.600;4.608;2023-07-13T02:27:35;15.50;99.90
23991;DHT22;12205;50.600;4.608;2023-07-13T02:30:05;15.60;99.90
23991;DHT22;12205;50.600;4.608;2023-07-13T02:32:33;15.50;99.90
23991;DHT22;12205;50.600;4.608;2023-07-13T02:35:01;15.50;99.90
23991;DHT22;12205;50.600;4.608;2023-07-13T02:37:28;15.40;99.90
23991;DHT22;12205;50.600;4.608;2023-07-13T02:39:56;15.40;99.90
23991;DHT22;12205;50.600;4.608;2023-07-13T02:42:24;15.40;99.90
23991;DHT22;12205;50.600;4.608;2023-07-13T02:44:51;15.30;99.90
23991;DHT22;12205;50.600;4.608;2023-07-13T02:47:19;15.30;99.90
23991;DHT22;12205;50.600;4.608;2023-07-13T02:49:46;15.40;99.90
23991;DHT22;12205;50.600;4.608;2023-07-13T02:52:13;15.40;99.90
23991;DHT22;12205;50.600;4.608;2023-07-13T02:54:41;15.40;99.90
23991;DHT22;12205;50.600;4.608;2023-07-13T02:57:08;15.40;99.90
23991;DHT22;12205;50.600;4.608;2023-07-13T02:59:36;15.40;99.90
23991;DHT22;12205;50.600;4.608;2023-07-13T03:02:04;15.40;99.90
23991;DHT22;12205;50.600;4.608;2023-07-13T03:04:34;15.40;99.90
23991;DHT22;12205;50.600;4.608;2023-07-13T03:07:02;15.40;99.90
23991;DHT22;12205;50.600;4.608;2023-07-13T03:09:35;15.40;99.90
23991;DHT22;12205;50.600;4.608;2023-07-13T03:12:06;15.40;99.90
23991;DHT22;12205;50.600;4.608;2023-07-13T03:14:33;15.40;99.90
23991;DHT22;12205;50.600;4.608;2023-07-13T03:17:03;15.40;99.90
23991;DHT22;12205;50.600;4.608;2023-07-13T03:19:35;15.30;99.90
23991;DHT22;12205;50.600;4.608;2023-07-13T03:22:04;15.30;99.90
23991;DHT22;12205;50.600;4.608;2023-07-13T03:24:33;15.20;99.90
23991;DHT22;12205;50.600;4.608;2023-07-13T03:27:01;15.20;99.90
23991;DHT22;12205;50.600;4.608;2023-07-13T03:29:31;15.10;99.90
23991;DHT22;12205;50.600;4.608;2023-07-13T03:31:58;15.10;99.90
23991;DHT22;12205;50.600;4.608;2023-07-13T03:34:25;15.00;99.90
23991;DHT22;12205;50.600;4.608;2023-07-13T03:36:55;15.00;99.90
23991;DHT22;12205;50.600;4.608;2023-07-13T03:39:22;15.00;99.90
23991;DHT22;12205;50.600;4.608;2023-07-13T03:41:53;14.90;99.90
23991;DHT22;12205;50.600;4.608;2023-07-13T03:44:21;14.90;99.90
23991;DHT22;12205;50.600;4.608;2023-07-13T03:46:53;14.90;99.90
23991;DHT22;12205;50.600;4.608;2023-07-13T03:49:20;14.90;99.90
23991;DHT22;12205;50.600;4.608;2023-07-13T03:51:47;14.90;99.90
23991;DHT22;12205;50.600;4.608;2023-07-13T03:54:15;14.90;99.90
23991;DHT22;12205;50.600;4.608;2023-07-13T03:56:44;14.90;99.90
23991;DHT22;12205;50.600;4.608;2023-07-13T03:59:12;15.00;99.90
23991;DHT22;12205;50.600;4.608;2023-07-13T04:01:39;15.00;99.90
23991;DHT22;12205;50.600;4.608;2023-07-13T04:04:06;15.00;99.90
23991;DHT22;12205;50.600;4.608;2023-07-13T04:06:33;15.00;99.90
23991;DHT22;12205;50.600;4.608;2023-07-13T04:09:03;15.00;99.90
23991;DHT22;12205;50.600;4.608;2023-07-13T04:11:33;15.10;99.90
23991;DHT22;12205;50.600;4.608;2023-07-13T04:14:02;15.10;99.90
23991;DHT22;12205;50.600;4.608;2023-07-13T04:16:29;15.20;99.90
23991;DHT22;12205;50.600;4.608;2023-07-13T04:18:56;15.20;99.90
23991;DHT22;12205;50.600;4.608;2023-07-13T04:21:25;15.30;99.90
23991;DHT22;12205;50.600;4.608;2023-07-13T04:23:53;15.30;99.90
23991;DHT22;12205;50.600;4.608;2023-07-13T04:26:20;15.30;99.90
23991;DHT22;12205;50.600;4.608;2023-07-13T04:28:49;15.40;99.90
23991;DHT22;12205;50.600;4.608;2023-07-13T04:31:17;15.40;99.90
23991;DHT22;12205;50.600;4.608;2023-07-13T04:33:45;15.40;99.90
23991;DHT22;12205;50.600;4.608;2023-07-13T04:36:12;15.50;99.90
23991;DHT22;12205;50.600;4.608;2023-07-13T04:38:39;15.50;99.90
23991;DHT22;12205;50.600;4.608;2023-07-13T04:41:08;15.50;99.90
23991;DHT22;12205;50.600;4.608;2023-07-13T04:43:35;15.60;99.90
23991;DHT22;12205;50.600;4.608;2023-07-13T04:46:06;15.60;99.90
23991;DHT22;12205;50.600;4.608;2023-07-13T04:48:34;15.60;99.90
23991;DHT22;12205;50.600;4.608;2023-07-13T04:51:02;15.60;99.90
23991;DHT22;12205;50.600;4.608;2023-07-13T04:53:30;15.70;99.90
23991;DHT22;12205;50.600;4.608;2023-07-13T04:55:57;15.70;99.90
23991;DHT22;12205;50.600;4.608;2023-07-13T04:58:25;15.70;99.90
23991;DHT22;12205;50.600;4.608;2023-07-13T05:00:53;15.80;99.90
23991;DHT22;12205;50.600;4.608;2023-07-13T05:03:27;15.80;99.90
23991;DHT22;12205;50.600;4.608;2023-07-13T05:05:58;15.90;99.90
23991;DHT22;12205;50.600;4.608;2023-07-13T05:08:26;16.00;99.90
23991;DHT22;12205;50.600;4.608;2023-07-13T05:10:53;16.10;99.90
23991;DHT22;12205;50.600;4.608;2023-07-13T05:13:21;16.20;99.90
23991;DHT22;12205;50.600;4.608;2023-07-13T05:15:55;16.20;99.90
23991;DHT22;12205;50.600;4.608;2023-07-13T05:18:23;16.40;99.90
23991;DHT22;12205;50.600;4.608;2023-07-13T05:21:00;16.40;99.90
23991;DHT22;12205;50.600;4.608;2023-07-13T05:23:30;16.50;99.90
23991;DHT22;12205;50.600;4.608;2023-07-13T05:25:58;16.50;99.90
23991;DHT22;12205;50.600;4.608;2023-07-13T05:28:26;16.60;99.90
23991;DHT22;12205;50.600;4.608;2023-07-13T05:30:54;16.60;99.90
23991;DHT22;12205;50.600;4.608;2023-07-13T05:33:21;16.70;99.90
23991;DHT22;12205;50.600;4.608;2023-07-13T05:35:49;16.60;99.90
23991;DHT22;12205;50.600;4.608;2023-07-13T05:38:17;16.60;99.90
23991;DHT22;12205;50.600;4.608;2023-07-13T05:40:45;16.70;99.90
23991;DHT22;12205;50.600;4.608;2023-07-13T05:43:13;16.70;99.90
23991;DHT22;12205;50.600;4.608;2023-07-13T05:45:40;16.60;99.90
23991;DHT22;12205;50.600;4.608;2023-07-13T05:48:08;16.70;99.90
23991;DHT22;12205;50.600;4.608;2023-07-13T05:50:35;16.70;99.90
23991;DHT22;12205;50.600;4.608;2023-07-13T05:53:02;16.80;99.90
23991;DHT22;12205;50.600;4.608;2023-07-13T05:55:30;16.90;99.90
23991;DHT22;12205;50.600;4.608;2023-07-13T05:57:57;16.90;99.90
23991;DHT22;12205;50.600;4.608;2023-07-13T06:00:25;17.00;99.90
23991;DHT22;12205;50.600;4.608;2023-07-13T06:02:53;16.90;99.90
23991;DHT22;12205;50.600;4.608;2023-07-13T06:05:20;17.10;99.90
23991;DHT22;12205;50.600;4.608;2023-07-13T06:07:47;17.10;99.90
23991;DHT22;12205;50.600;4.608;2023-07-13T06:10:14;17.10;99.90
23991;DHT22;12205;50.600;4.608;2023-07-13T06:12:43;17.10;99.90
23991;DHT22;12205;50.600;4.608;2023-07-13T06:15:10;17.20;99.90
23991;DHT22;12205;50.600;4.608;2023-07-13T06:17:38;17.20;99.90
23991;DHT22;12205;50.600;4.608;2023-07-13T06:20:07;17.30;99.90
23991;DHT22;12205;50.600;4.608;2023-07-13T06:22:34;17.30;99.90
23991;DHT22;12205;50.600;4.608;2023-07-13T06:25:01;17.40;99.90
23991;DHT22;12205;50.600;4.608;2023-07-13T06:27:28;17.40;99.90
23991;DHT22;12205;50.600;4.608;2023-07-13T06:29:57;17.50;99.90
23991;DHT22;12205;50.600;4.608;2023-07-13T06:32:24;17.40;99.90
23991;DHT22;12205;50.600;4.608;2023-07-13T06:34:51;17.40;99.90
23991;DHT22;12205;50.600;4.608;2023-07-13T06:37:18;17.50;99.90
23991;DHT22;12205;50.600;4.608;2023-07-13T06:39:45;17.60;99.90
23991;DHT22;12205;50.600;4.608;2023-07-13T06:42:12;17.60;99.90
23991;DHT22;12205;50.600;4.608;2023-07-13T06:44:39;17.70;99.90
23991;DHT22;12205;50.600;4.608;2023-07-13T06:47:08;17.80;99.90
23991;DHT22;12205;50.600;4.608;2023-07-13T06:49:35;17.90;99.90
23991;DHT22;12205;50.600;4.608;2023-07-13T06:52:02;18.00;99.90
23991;DHT22;12205;50.600;4.608;2023-07-13T06:54:30;18.00;99.90
23991;DHT22;12205;50.600;4.608;2023-07-13T06:56:57;18.10;99.90
23991;DHT22;12205;50.600;4.608;2023-07-13T06:59:24;18.20;99.90
23991;DHT22;12205;50.600;4.608;2023-07-13T07:01:51;18.20;99.90
23991;DHT22;12205;50.600;4.608;2023-07-13T07:04:19;18.40;99.90
23991;DHT22;12205;50.600;4.608;2023-07-13T07:06:47;18.40;99.90
23991;DHT22;12205;50.600;4.608;2023-07-13T07:09:14;18.40;99.90
23991;DHT22;12205;50.600;4.608;2023-07-13T07:11:42;18.50;99.90
23991;DHT22;12205;50.600;4.608;2023-07-13T07:14:09;18.30;99.90
23991;DHT22;12205;50.600;4.608;2023-07-13T07:16:36;18.40;99.90
23991;DHT22;12205;50.600;4.608;2023-07-13T07:19:03;18.50;99.90
23991;DHT22;12205;50.600;4.608;2023-07-13T07:21:31;18.50;99.90
23991;DHT22;12205;50.600;4.608;2023-07-13T07:23:58;18.50;99.90
23991;DHT22;12205;50.600;4.608;2023-07-13T07:26:26;18.70;99.90
23991;DHT22;12205;50.600;4.608;2023-07-13T07:28:53;18.90;99.90
23991;DHT22;12205;50.600;4.608;2023-07-13T07:31:20;19.10;99.90
23991;DHT22;12205;50.600;4.608;2023-07-13T07:33:47;19.30;99.90
23991;DHT22;12205;50.600;4.608;2023-07-13T07:36:15;19.40;99.90
23991;DHT22;12205;50.600;4.608;2023-07-13T07:38:45;19.40;99.90
23991;DHT22;12205;50.600;4.608;2023-07-13T07:41:12;19.40;99.90
23991;DHT22;12205;50.600;4.608;2023-07-13T07:43:40;19.30;99.90
23991;DHT22;12205;50.600;4.608;2023-07-13T07:46:07;19.10;99.90
23991;DHT22;12205;50.600;4.608;2023-07-13T07:48:34;19.00;99.90
23991;DHT22;12205;50.600;4.608;2023-07-13T07:51:01;19.00;99.90
23991;DHT22;12205;50.600;4.608;2023-07-13T07:53:28;19.00;99.90
23991;DHT22;12205;50.600;4.608;2023-07-13T07:55:57;18.90;99.90
23991;DHT22;12205;50.600;4.608;2023-07-13T07:58:24;18.90;99.90
23991;DHT22;12205;50.600;4.608;2023-07-13T08:00:51;18.90;99.90
23991;DHT22;12205;50.600;4.608;2023-07-13T08:03:18;18.90;99.90
23991;DHT22;12205;50.600;4.608;2023-07-13T08:05:45;18.90;99.90
23991;DHT22;12205;50.600;4.608;2023-07-13T08:08:12;19.00;99.90
23991;DHT22;12205;50.600;4.608;2023-07-13T08:10:39;19.10;99.90
23991;DHT22;12205;50.600;4.608;2023-07-13T08:13:08;19.00;99.90
23991;DHT22;12205;50.600;4.608;2023-07-13T08:15:35;19.10;99.90
23991;DHT22;12205;50.600;4.608;2023-07-13T08:18:03;19.20;99.90
23991;DHT22;12205;50.600;4.608;2023-07-13T08:20:30;19.40;99.90
23991;DHT22;12205;50.600;4.608;2023-07-13T08:22:57;19.10;99.90
23991;DHT22;12205;50.600;4.608;2023-07-13T08:25:24;19.20;99.90
23991;DHT22;12205;50.600;4.608;2023-07-13T08:27:51;19.50;99.90
23991;DHT22;12205;50.600;4.608;2023-07-13T08:30:20;19.40;99.90
23991;DHT22;12205;50.600;4.608;2023-07-13T08:32:47;19.30;99.90
23991;DHT22;12205;50.600;4.608;2023-07-13T08:35:15;19.20;99.90
23991;DHT22;12205;50.600;4.608;2023-07-13T08:37:42;19.20;99.90
23991;DHT22;12205;50.600;4.608;2023-07-13T08:40:10;19.20;99.90
23991;DHT22;12205;50.600;4.608;2023-07-13T08:42:42;19.20;99.90
23991;DHT22;12205;50.600;4.608;2023-07-13T08:45:17;19.10;99.90
23991;DHT22;12205;50.600;4.608;2023-07-13T08:47:52;19.10;99.90
23991;DHT22;12205;50.600;4.608;2023-07-13T08:50:25;19.10;99.90
23991;DHT22;12205;50.600;4.608;2023-07-13T08:52:56;19.20;99.90
23991;DHT22;12205;50.600;4.608;2023-07-13T08:55:28;19.40;99.90
23991;DHT22;12205;50.600;4.608;2023-07-13T08:58:03;19.50;99.90
23991;DHT22;12205;50.600;4.608;2023-07-13T09:00:44;19.60;99.90
23991;DHT22;12205;50.600;4.608;2023-07-13T09:03:22;19.80;99.90
23991;DHT22;12205;50.600;4.608;2023-07-13T09:05:54;19.90;99.90
23991;DHT22;12205;50.600;4.608;2023-07-13T09:08:34;19.90;99.90
23991;DHT22;12205;50.600;4.608;2023-07-13T09:11:23;20.00;99.90
23991;DHT22;12205;50.600;4.608;2023-07-13T09:14:02;20.10;99.90
23991;DHT22;12205;50.600;4.608;2023-07-13T09:16:44;20.20;99.90
23991;DHT22;12205;50.600;4.608;2023-07-13T09:19:16;20.30;99.90
23991;DHT22;12205;50.600;4.608;2023-07-13T09:21:48;20.40;99.90
23991;DHT22;12205;50.600;4.608;2023-07-13T09:24:38;20.40;99.90
23991;DHT22;12205;50.600;4.608;2023-07-13T09:27:15;20.50;99.90
23991;DHT22;12205;50.600;4.608;2023-07-13T09:29:48;20.80;99.90
23991;DHT22;12205;50.600;4.608;2023-07-13T09:32:24;20.80;99.90
23991;DHT22;12205;50.600;4.608;2023-07-13T09:34:54;20.70;99.90
23991;DHT22;12205;50.600;4.608;2023-07-13T09:37:24;20.90;99.90
23991;DHT22;12205;50.600;4.608;2023-07-13T09:39:59;20.90;99.90
23991;DHT22;12205;50.600;4.608;2023-07-13T09:42:31;21.00;99.90
23991;DHT22;12205;50.600;4.608;2023-07-13T09:45:00;20.80;99.90
23991;DHT22;12205;50.600;4.608;2023-07-13T09:47:31;20.90;99.90
23991;DHT22;12205;50.600;4.608;2023-07-13T09:50:08;20.90;99.90
23991;DHT22;12205;50.600;4.608;2023-07-13T09:52:43;20.80;99.90
23991;DHT22;12205;50.600;4.608;2023-07-13T09:55:24;20.90;99.90
23991;DHT22;12205;50.600;4.608;2023-07-13T09:57:52;20.80;99.90
23991;DHT22;12205;50.600;4.608;2023-07-13T10:00:25;20.80;99.90
23991;DHT22;12205;50.600;4.608;2023-07-13T10:03:04;20.80;99.90
23991;DHT22;12205;50.600;4.608;2023-07-13T10:05:42;20.80;99.90
23991;DHT22;12205;50.600;4.608;2023-07-13T10:08:23;20.80;99.90
23991;DHT22;12205;50.600;4.608;2023-07-13T10:10:57;20.80;99.90
23991;DHT22;12205;50.600;4.608;2023-07-13T10:13:33;21.00;99.90
23991;DHT22;12205;50.600;4.608;2023-07-13T10:16:03;21.10;99.90
23991;DHT22;12205;50.600;4.608;2023-07-13T10:18:39;21.10;99.90
23991;DHT22;12205;50.600;4.608;2023-07-13T10:21:12;21.10;99.90
23991;DHT22;12205;50.600;4.608;2023-07-13T10:23:42;21.10;99.90
23991;DHT22;12205;50.600;4.608;2023-07-13T10:26:16;21.20;99.90
23991;DHT22;12205;50.600;4.608;2023-07-13T10:28:51;21.30;99.90
23991;DHT22;12205;50.600;4.608;2023-07-13T10:31:22;21.50;99.90
23991;DHT22;12205;50.600;4.608;2023-07-13T10:33:52;21.60;99.90
23991;DHT22;12205;50.600;4.608;2023-07-13T10:36:30;21.60;99.90
23991;DHT22;12205;50.600;4.608;2023-07-13T10:39:02;21.60;99.90
23991;DHT22;12205;50.600;4.608;2023-07-13T10:41:36;21.50;99.90
23991;DHT22;12205;50.600;4.608;2023-07-13T10:44:09;21.50;99.90
23991;DHT22;12205;50.600;4.608;2023-07-13T10:46:45;21.50;99.90
23991;DHT22;12205;50.600;4.608;2023-07-13T10:49:14;21.50;99.90
23991;DHT22;12205;50.600;4.608;2023-07-13T10:51:43;21.40;99.90
23991;DHT22;12205;50.600;4.608;2023-07-13T10:54:21;21.40;99.90
23991;DHT22;12205;50.600;4.608;2023-07-13T10:57:07;21.30;99.90
23991;DHT22;12205;50.600;4.608;2023-07-13T10:59:43;21.40;99.90
23991;DHT22;12205;50.600;4.608;2023-07-13T11:02:23;21.40;99.90
23991;DHT22;12205;50.600;4.608;2023-07-13T11:04:55;21.30;99.90
23991;DHT22;12205;50.600;4.608;2023-07-13T11:07:25;21.50;99.90
23991;DHT22;12205;50.600;4.608;2023-07-13T11:09:55;21.70;99.90
23991;DHT22;12205;50.600;4.608;2023-07-13T11:12:48;21.70;99.90
23991;DHT22;12205;50.600;4.608;2023-07-13T11:15:29;21.60;99.90
23991;DHT22;12205;50.600;4.608;2023-07-13T11:18:20;21.70;99.90
23991;DHT22;12205;50.600;4.608;2023-07-13T11:20:52;22.00;99.90
23991;DHT22;12205;50.600;4.608;2023-07-13T11:23:42;22.10;99.90
23991;DHT22;12205;50.600;4.608;2023-07-13T11:26:38;22.40;99.90
23991;DHT22;12205;50.600;4.608;2023-07-13T11:29:09;22.50;99.90
23991;DHT22;12205;50.600;4.608;2023-07-13T11:31:52;22.40;99.90
23991;DHT22;12205;50.600;4.608;2023-07-13T11:34:26;22.40;99.90
23991;DHT22;12205;50.600;4.608;2023-07-13T11:36:58;22.30;99.90
23991;DHT22;12205;50.600;4.608;2023-07-13T11:39:30;22.40;99.90
23991;DHT22;12205;50.600;4.608;2023-07-13T11:42:01;22.60;99.90
23991;DHT22;12205;50.600;4.608;2023-07-13T11:44:32;22.70;99.90
23991;DHT22;12205;50.600;4.608;2023-07-13T11:47:08;22.90;99.90
23991;DHT22;12205;50.600;4.608;2023-07-13T11:49:43;23.00;99.90
23991;DHT22;12205;50.600;4.608;2023-07-13T11:52:16;23.10;99.90
23991;DHT22;12205;50.600;4.608;2023-07-13T11:54:48;23.40;99.90
23991;DHT22;12205;50.600;4.608;2023-07-13T11:57:24;23.50;99.90
23991;DHT22;12205;50.600;4.608;2023-07-13T11:59:55;23.50;99.90
23991;DHT22;12205;50.600;4.608;2023-07-13T12:02:28;23.50;99.90
23991;DHT22;12205;50.600;4.608;2023-07-13T12:04:58;23.50;99.90
23991;DHT22;12205;50.600;4.608;2023-07-13T12:07:31;23.40;99.90
23991;DHT22;12205;50.600;4.608;2023-07-13T12:10:00;23.50;99.90
23991;DHT22;12205;50.600;4.608;2023-07-13T12:12:29;23.80;99.90
23991;DHT22;12205;50.600;4.608;2023-07-13T12:14:57;23.80;99.90
23991;DHT22;12205;50.600;4.608;2023-07-13T12:17:25;23.50;99.90
23991;DHT22;12205;50.600;4.608;2023-07-13T12:19:53;24.00;99.90
23991;DHT22;12205;50.600;4.608;2023-07-13T12:22:21;24.40;99.90
23991;DHT22;12205;50.600;4.608;2023-07-13T12:24:51;24.70;99.90
23991;DHT22;12205;50.600;4.608;2023-07-13T12:27:21;25.20;99.90
23991;DHT22;12205;50.600;4.608;2023-07-13T12:29:51;25.50;99.90
23991;DHT22;12205;50.600;4.608;2023-07-13T12:32:20;25.40;99.90
23991;DHT22;12205;50.600;4.608;2023-07-13T12:34:52;25.60;99.90
23991;DHT22;12205;50.600;4.608;2023-07-13T12:37:22;25.90;99.90
23991;DHT22;12205;50.600;4.608;2023-07-13T12:39:51;26.20;99.90
23991;DHT22;12205;50.600;4.608;2023-07-13T12:42:21;25.90;99.90
23991;DHT22;12205;50.600;4.608;2023-07-13T12:44:54;25.70;99.90
23991;DHT22;12205;50.600;4.608;2023-07-13T12:47:24;25.70;99.90
23991;DHT22;12205;50.600;4.608;2023-07-13T12:49:54;25.80;99.90
23991;DHT22;12205;50.600;4.608;2023-07-13T12:52:28;25.80;99.90
23991;DHT22;12205;50.600;4.608;2023-07-13T12:55:12;25.90;99.90
23991;DHT22;12205;50.600;4.608;2023-07-13T12:57:49;25.20;99.90
23991;DHT22;12205;50.600;4.608;2023-07-13T13:00:28;25.20;99.90
23991;DHT22;12205;50.600;4.608;2023-07-13T13:03:02;25.30;99.90
23991;DHT22;12205;50.600;4.608;2023-07-13T13:05:32;25.30;99.90
23991;DHT22;12205;50.600;4.608;2023-07-13T13:08:00;25.30;99.90
23991;DHT22;12205;50.600;4.608;2023-07-13T13:10:28;25.40;99.90
23991;DHT22;12205;50.600;4.608;2023-07-13T13:12:56;25.50;99.90
23991;DHT22;12205;50.600;4.608;2023-07-13T13:15:23;25.50;99.90
23991;DHT22;12205;50.600;4.608;2023-07-13T13:17:50;25.30;99.90
23991;DHT22;12205;50.600;4.608;2023-07-13T13:20:19;25.00;99.90
23991;DHT22;12205;50.600;4.608;2023-07-13T13:22:47;25.00;99.90
23991;DHT22;12205;50.600;4.608;2023-07-13T13:25:15;25.00;99.90
23991;DHT22;12205;50.600;4.608;2023-07-13T13:27:45;24.80;99.90
23991;DHT22;12205;50.600;4.608;2023-07-13T13:30:14;24.80;99.90
23991;DHT22;12205;50.600;4.608;2023-07-13T13:32:45;24.50;99.90
23991;DHT22;12205;50.600;4.608;2023-07-13T13:35:14;24.60;99.90
23991;DHT22;12205;50.600;4.608;2023-07-13T13:37:43;24.40;99.90
23991;DHT22;12205;50.600;4.608;2023-07-13T13:40:14;24.50;99.90
23991;DHT22;12205;50.600;4.608;2023-07-13T13:42:44;24.50;99.90
23991;DHT22;12205;50.600;4.608;2023-07-13T13:45:12;24.60;99.90
23991;DHT22;12205;50.600;4.608;2023-07-13T13:47:42;24.50;99.90
23991;DHT22;12205;50.600;4.608;2023-07-13T13:50:12;24.50;99.90
23991;DHT22;12205;50.600;4.608;2023-07-13T13:52:41;24.20;99.90
23991;DHT22;12205;50.600;4.608;2023-07-13T13:55:19;24.30;99.90
23991;DHT22;12205;50.600;4.608;2023-07-13T13:57:51;24.60;99.90
23991;DHT22;12205;50.600;4.608;2023-07-13T14:00:20;24.60;99.90
23991;DHT22;12205;50.600;4.608;2023-07-13T14:02:48;24.70;99.90
23991;DHT22;12205;50.600;4.608;2023-07-13T14:05:22;24.90;99.90
23991;DHT22;12205;50.600;4.608;2023-07-13T14:07:51;25.00;99.90
23991;DHT22;12205;50.600;4.608;2023-07-13T14:10:20;25.10;99.90
23991;DHT22;12205;50.600;4.608;2023-07-13T14:12:50;25.30;99.90
23991;DHT22;12205;50.600;4.608;2023-07-13T14:15:24;25.50;99.90
23991;DHT22;12205;50.600;4.608;2023-07-13T14:17:53;25.70;99.90
23991;DHT22;12205;50.600;4.608;2023-07-13T14:20:21;26.10;99.90
23991;DHT22;12205;50.600;4.608;2023-07-13T14:22:50;26.60;99.90
23991;DHT22;12205;50.600;4.608;2023-07-13T14:25:18;27.20;99.90
23991;DHT22;12205;50.600;4.608;2023-07-13T14:27:49;27.50;99.90
23991;DHT22;12205;50.600;4.608;2023-07-13T14:30:23;27.50;99.90
23991;DHT22;12205;50.600;4.608;2023-07-13T14:32:50;27.80;99.90
23991;DHT22;12205;50.600;4.608;2023-07-13T14:35:20;28.10;99.90
23991;DHT22;12205;50.600;4.608;2023-07-13T14:37:49;28.70;99.90
23991;DHT22;12205;50.600;4.608;2023-07-13T14:40:19;29.10;99.90
23991;DHT22;12205;50.600;4.608;2023-07-13T14:42:53;29.60;99.90
23991;DHT22;12205;50.600;4.608;2023-07-13T14:45:21;29.70;99.90
23991;DHT22;12205;50.600;4.608;2023-07-13T14:47:48;29.80;99.90
23991;DHT22;12205;50.600;4.608;2023-07-13T14:50:17;29.50;99.90
23991;DHT22;12205;50.600;4.608;2023-07-13T14:52:46;28.70;99.90
23991;DHT22;12205;50.600;4.608;2023-07-13T14:55:16;27.90;99.90
23991;DHT22;12205;50.600;4.608;2023-07-13T14:57:45;28.00;99.90
23991;DHT22;12205;50.600;4.608;2023-07-13T15:00:15;27.90;99.90
23991;DHT22;12205;50.600;4.608;2023-07-13T15:02:46;28.10;99.90
23991;DHT22;12205;50.600;4.608;2023-07-13T15:05:18;27.80;99.90
23991;DHT22;12205;50.600;4.608;2023-07-13T15:07:47;27.90;99.90
23991;DHT22;12205;50.600;4.608;2023-07-13T15:10:17;27.90;99.90
23991;DHT22;12205;50.600;4.608;2023-07-13T15:12:45;27.80;99.90
23991;DHT22;12205;50.600;4.608;2023-07-13T15:15:14;27.40;99.90
23991;DHT22;12205;50.600;4.608;2023-07-13T15:17:44;27.10;99.90
23991;DHT22;12205;50.600;4.608;2023-07-13T15:20:19;27.30;99.90
23991;DHT22;12205;50.600;4.608;2023-07-13T15:22:50;27.50;99.90
23991;DHT22;12205;50.600;4.608;2023-07-13T15:25:19;27.50;99.90
23991;DHT22;12205;50.600;4.608;2023-07-13T15:27:48;27.40;99.90
23991;DHT22;12205;50.600;4.608;2023-07-13T15:30:17;27.70;99.90
23991;DHT22;12205;50.600;4.608;2023-07-13T15:32:45;27.70;99.90
23991;DHT22;12205;50.600;4.608;2023-07-13T15:35:14;27.80;99.90
23991;DHT22;12205;50.600;4.608;2023-07-13T15:37:43;27.90;99.50
23991;DHT22;12205;50.600;4.608;2023-07-13T15:40:11;28.00;99.80
23991;DHT22;12205;50.600;4.608;2023-07-13T15:42:40;28.30;99.90
23991;DHT22;12205;50.600;4.608;2023-07-13T15:45:18;28.70;99.00
23991;DHT22;12205;50.600;4.608;2023-07-13T15:47:47;28.40;98.30
23991;DHT22;12205;50.600;4.608;2023-07-13T15:50:17;28.40;98.80